createdAt,value
2022-12-11T00:02:24.262Z,-0.20
2022-12-11T00:04:52.515Z,-0.10
2022-12-11T00:07:20.783Z,-0.20
2022-12-11T00:09:49.498Z,-0.20
2022-12-11T00:12:17.441Z,1.50
2022-12-11T00:14:45.380Z,-0.20
2022-12-11T00:17:14.630Z,-0.20
2022-12-11T00:19:42.517Z,-0.20
2022-12-11T00:22:10.493Z,-0.20
2022-12-11T00:24:38.636Z,-0.20
2022-12-11T00:27:06.546Z,-0.20
2022-12-11T00:29:34.467Z,-0.20
2022-12-11T00:32:02.596Z,0.70
2022-12-11T00:34:31.884Z,-0.10
2022-12-11T00:37:00.048Z,-0.10
2022-12-11T00:39:28.039Z,-0.20
2022-12-11T00:41:55.957Z,-0.10
2022-12-11T00:44:23.875Z,-0.10
2022-12-11T00:46:51.806Z,-0.20
2022-12-11T00:49:20.047Z,-0.20
2022-12-11T00:51:49.330Z,-0.40
2022-12-11T00:54:17.293Z,-0.10
2022-12-11T00:56:45.245Z,2.10
2022-12-11T00:59:13.542Z,-0.20
2022-12-11T01:01:41.515Z,-0.10
2022-12-11T01:04:09.525Z,-0.40
2022-12-11T01:06:37.451Z,-0.20
2022-12-11T01:09:24.409Z,1.70
2022-12-11T01:11:53.095Z,-0.30
2022-12-11T01:14:21.082Z,1.30
2022-12-11T01:16:48.979Z,-0.20
2022-12-11T01:19:17.021Z,1.90
2022-12-11T01:21:44.954Z,-0.20
2022-12-11T01:24:14.241Z,-0.30
2022-12-11T01:26:42.159Z,1.30
2022-12-11T01:29:10.068Z,1.90
2022-12-11T01:31:38.746Z,1.10
2022-12-11T01:34:07.242Z,-0.50
2022-12-11T01:36:35.226Z,-0.50
2022-12-11T01:39:03.161Z,-0.40
2022-12-11T01:41:32.523Z,-0.40
2022-12-11T01:44:03.029Z,-0.40
2022-12-11T01:46:32.481Z,1.40
2022-12-11T01:49:02.151Z,-0.40
2022-12-11T01:51:32.324Z,-0.50
2022-12-11T01:54:02.984Z,0.80
2022-12-11T01:56:35.030Z,-0.50
2022-12-11T01:59:07.552Z,-0.40
2022-12-11T02:01:40.630Z,-0.40
2022-12-11T02:04:09.624Z,-0.40
2022-12-11T02:06:39.787Z,-0.40
2022-12-11T02:09:11.161Z,0.40
2022-12-11T02:11:53.881Z,-1.30
2022-12-11T02:14:29.325Z,-0.40
2022-12-11T02:17:01.913Z,-0.40
2022-12-11T02:19:49.032Z,-0.40
2022-12-11T02:22:28.503Z,-0.40
2022-12-11T02:25:11.839Z,1.10
2022-12-11T02:27:45.877Z,-0.60
2022-12-11T02:30:16.986Z,0.90
2022-12-11T02:32:48.716Z,-0.40
2022-12-11T02:35:20.728Z,-0.50
2022-12-11T02:37:52.817Z,-0.40
2022-12-11T02:40:25.802Z,-0.60
2022-12-11T02:42:55.179Z,-0.70
2022-12-11T02:45:27.399Z,-0.50
2022-12-11T02:47:57.026Z,-0.50
2022-12-11T02:50:25.549Z,-0.40
2022-12-11T02:52:56.521Z,1.60
2022-12-11T02:55:25.838Z,-0.40
2022-12-11T02:58:00.950Z,-0.50
2022-12-11T03:00:30.427Z,-0.50
2022-12-11T03:02:59.145Z,-0.50
2022-12-11T03:05:27.928Z,-0.50
2022-12-11T03:07:56.047Z,-0.50
2022-12-11T03:10:24.195Z,-0.50
2022-12-11T03:12:55.629Z,-0.50
2022-12-11T03:15:30.667Z,-0.60
2022-12-11T03:18:06.957Z,-0.60
2022-12-11T03:20:39.961Z,1.30
2022-12-11T03:23:17.978Z,0.60
2022-12-11T03:25:53.526Z,-0.70
2022-12-11T03:28:27.082Z,-0.60
2022-12-11T03:30:56.094Z,-0.70
2022-12-11T03:33:31.819Z,-0.60
2022-12-11T03:36:04.973Z,1.40
2022-12-11T03:38:38.705Z,1.40
2022-12-11T03:41:08.829Z,-0.70
2022-12-11T03:43:37.440Z,-0.60
2022-12-11T03:46:06.211Z,-0.70
2022-12-11T03:48:38.549Z,-0.50
2022-12-11T03:51:07.895Z,0.20
2022-12-11T03:53:37.202Z,-0.50
2022-12-11T03:56:07.326Z,-0.50
2022-12-11T03:58:35.579Z,-0.50
2022-12-11T04:01:03.550Z,-0.50
2022-12-11T04:03:31.456Z,-0.60
2022-12-11T04:06:00.777Z,-0.60
2022-12-11T04:08:28.877Z,-0.60
2022-12-11T04:11:10.689Z,-0.90
2022-12-11T04:13:39.019Z,-0.70
2022-12-11T04:16:06.867Z,-0.60
2022-12-11T04:18:52.661Z,-0.50
2022-12-11T04:21:39.945Z,-0.50
2022-12-11T04:24:17.463Z,-0.50
2022-12-11T04:26:47.411Z,-0.50
2022-12-11T04:29:16.465Z,-0.50
2022-12-11T04:31:45.758Z,-0.50
2022-12-11T06:08:43.531Z,-0.40
2022-12-11T06:11:14.104Z,-0.40
2022-12-11T06:13:42.106Z,-0.70
2022-12-11T06:16:11.138Z,-0.40
2022-12-11T06:18:40.509Z,-0.40
2022-12-11T06:21:16.555Z,-0.30
2022-12-11T06:23:46.810Z,-0.10
2022-12-11T06:26:15.602Z,-0.30
2022-12-11T06:28:43.718Z,-0.50
2022-12-11T06:31:12.019Z,1.20
2022-12-11T06:33:40.751Z,-0.50
2022-12-11T06:36:10.617Z,-0.60
2022-12-11T06:38:39.044Z,-0.50
2022-12-11T06:41:09.533Z,-0.40
2022-12-11T06:43:39.148Z,-0.40
2022-12-11T06:46:08.167Z,-0.40
2022-12-11T06:48:36.357Z,-0.40
2022-12-11T06:51:07.595Z,-0.40
2022-12-11T06:53:35.844Z,-0.40
2022-12-11T06:56:05.264Z,-0.50
2022-12-11T06:58:35.511Z,0.90
2022-12-11T07:01:03.777Z,-0.60
2022-12-11T07:03:31.768Z,0.10
2022-12-11T07:06:02.317Z,1.40
2022-12-11T07:08:31.921Z,-0.50
2022-12-11T07:11:05.063Z,-0.50
2022-12-11T07:13:35.601Z,1.30
2022-12-11T07:16:04.640Z,1.20
2022-12-11T07:18:33.240Z,-0.50
2022-12-11T07:21:01.390Z,-0.40
2022-12-11T07:23:29.926Z,-0.40
2022-12-11T07:25:58.628Z,-0.30
2022-12-11T07:28:26.901Z,-0.60
2022-12-11T07:30:56.177Z,1.40
2022-12-11T07:33:24.146Z,1.80
2022-12-11T07:35:52.119Z,-0.40
2022-12-11T07:38:20.075Z,-0.40
2022-12-11T07:40:48.032Z,-0.40
2022-12-11T07:43:15.992Z,-0.50
2022-12-11T07:45:44.089Z,0.70
2022-12-11T07:48:13.457Z,-0.60
2022-12-11T07:50:41.417Z,1.60
2022-12-11T07:53:09.404Z,-0.60
2022-12-11T07:55:37.332Z,-0.60
2022-12-11T07:58:05.263Z,-0.50
2022-12-11T08:00:33.232Z,-0.50
2022-12-11T08:03:01.183Z,0.30
2022-12-11T08:05:30.505Z,-0.50
2022-12-11T08:07:58.526Z,-0.40
2022-12-11T08:10:26.517Z,-0.40
2022-12-11T08:12:54.494Z,1.30
2022-12-11T08:15:22.467Z,-0.40
2022-12-11T08:17:50.371Z,-0.40
2022-12-11T08:20:18.346Z,-0.40
2022-12-11T08:22:47.768Z,-0.40
2022-12-11T08:25:15.842Z,-0.50
2022-12-11T08:27:44.011Z,1.70
2022-12-11T08:30:12.778Z,-0.40
2022-12-11T08:32:40.739Z,-0.30
2022-12-11T08:35:09.860Z,-0.30
2022-12-11T08:37:38.128Z,-0.20
2022-12-11T08:40:09.255Z,-0.20
2022-12-11T08:42:37.221Z,-0.20
2022-12-11T08:45:05.908Z,-0.30
2022-12-11T08:47:33.834Z,-0.20
2022-12-11T08:50:01.914Z,-0.20
2022-12-11T08:52:31.282Z,-0.20
2022-12-11T08:54:59.226Z,-0.10
2022-12-11T08:57:28.986Z,-0.10
2022-12-11T08:59:56.941Z,1.60
2022-12-11T09:02:24.923Z,-0.20
2022-12-11T09:04:52.925Z,-0.10
2022-12-11T09:07:20.847Z,0.00
2022-12-11T09:09:48.938Z,0.00
2022-12-11T09:12:16.893Z,0.00
2022-12-11T09:14:47.736Z,0.00
2022-12-11T09:17:16.006Z,0.00
2022-12-11T09:19:44.151Z,-0.20
2022-12-11T09:22:12.844Z,-0.10
2022-12-11T09:24:40.990Z,-0.10
2022-12-11T09:27:09.078Z,0.00
2022-12-11T09:29:37.020Z,0.00
2022-12-11T09:32:17.842Z,-0.10
2022-12-11T09:34:45.909Z,0.00
2022-12-11T09:37:14.002Z,0.00
2022-12-11T09:39:41.934Z,0.00
2022-12-11T09:42:15.314Z,1.40
2022-12-11T09:44:48.024Z,0.00
2022-12-11T09:47:24.134Z,-0.10
2022-12-11T09:49:59.206Z,0.00
2022-12-11T09:52:33.477Z,1.30
2022-12-11T09:55:04.285Z,0.00
2022-12-11T09:57:44.879Z,0.10
2022-12-11T10:00:25.576Z,-0.20
2022-12-11T10:03:24.622Z,-0.20
2022-12-11T10:06:04.925Z,1.90
2022-12-11T10:08:39.150Z,-0.10
2022-12-11T10:11:22.000Z,-0.20
2022-12-11T10:13:55.922Z,1.70
2022-12-11T10:16:36.583Z,-0.20
2022-12-11T10:19:06.552Z,0.90
2022-12-11T10:21:40.538Z,-0.10
2022-12-11T10:24:41.852Z,0.10
2022-12-11T10:27:19.139Z,0.10
2022-12-11T10:29:47.488Z,0.20
2022-12-11T10:32:25.076Z,1.60
2022-12-11T10:35:02.053Z,0.80
2022-12-11T10:37:30.060Z,0.30
2022-12-11T10:39:57.939Z,0.40
2022-12-11T10:42:25.880Z,0.40
2022-12-11T10:44:58.328Z,0.40
2022-12-11T10:47:26.307Z,0.50
2022-12-11T10:49:58.376Z,0.50
2022-12-11T10:52:29.187Z,0.50
2022-12-11T10:55:00.803Z,0.50
2022-12-11T10:57:31.551Z,0.50
2022-12-11T11:00:00.361Z,2.40
2022-12-11T11:02:31.894Z,0.50
2022-12-11T11:05:12.625Z,2.80
2022-12-11T11:07:40.815Z,0.60
2022-12-11T11:10:16.984Z,0.50
2022-12-11T11:12:47.436Z,1.60
2022-12-11T11:15:18.834Z,1.40
2022-12-11T11:17:55.153Z,0.40
2022-12-11T11:20:27.542Z,0.40
2022-12-11T11:22:57.538Z,0.50
2022-12-11T11:25:27.236Z,0.40
2022-12-11T11:27:57.375Z,0.50
2022-12-11T11:30:27.266Z,2.60
2022-12-11T11:32:57.479Z,2.80
2022-12-11T11:35:29.683Z,0.60
2022-12-11T11:38:06.471Z,0.60
2022-12-11T11:40:42.185Z,0.60
2022-12-11T11:43:19.955Z,0.50
2022-12-11T11:45:54.709Z,0.70
2022-12-11T11:48:31.751Z,0.60
2022-12-11T11:51:13.794Z,2.70
2022-12-11T11:53:42.072Z,0.80
2022-12-11T11:56:22.867Z,0.80
2022-12-11T11:59:06.701Z,0.90
2022-12-11T12:01:34.683Z,0.90
2022-12-11T12:04:04.728Z,1.00
2022-12-11T12:06:58.716Z,2.80
2022-12-11T12:09:40.821Z,1.00
2022-12-11T12:12:24.757Z,1.00
2022-12-11T12:15:07.396Z,2.00
2022-12-11T12:17:50.408Z,0.80
2022-12-11T12:20:28.679Z,0.80
2022-12-11T12:23:24.388Z,1.60
2022-12-11T12:26:00.258Z,0.80
2022-12-11T12:28:37.216Z,0.70
2022-12-11T12:31:18.156Z,0.60
2022-12-11T12:33:54.636Z,0.60
2022-12-11T12:36:28.550Z,0.70
2022-12-11T12:39:02.404Z,0.60
2022-12-11T12:41:39.050Z,0.70
2022-12-11T12:44:15.787Z,0.70
2022-12-11T12:46:51.473Z,1.10
2022-12-11T12:49:39.317Z,0.70
2022-12-11T12:52:13.302Z,0.60
2022-12-11T12:55:04.918Z,0.50
2022-12-11T12:57:34.015Z,0.60
2022-12-11T13:00:01.937Z,0.70
2022-12-11T13:02:31.152Z,0.80
2022-12-11T13:05:01.442Z,0.70
2022-12-11T13:07:32.610Z,0.70
2022-12-11T13:10:06.163Z,0.70
2022-12-11T13:12:45.856Z,0.80
2022-12-11T13:15:28.786Z,0.70
2022-12-11T13:17:57.098Z,0.70
2022-12-11T13:20:26.951Z,0.70
2022-12-11T13:23:16.025Z,0.70
2022-12-11T13:25:51.098Z,0.70
2022-12-11T13:28:32.381Z,0.80
2022-12-11T13:31:05.289Z,0.80
2022-12-11T13:33:39.014Z,0.80
2022-12-11T13:36:27.851Z,0.80
2022-12-11T13:38:58.111Z,0.80
2022-12-11T13:41:28.479Z,1.90
2022-12-11T13:43:58.456Z,0.70
2022-12-11T13:46:30.265Z,0.70
2022-12-11T13:49:01.246Z,0.70
2022-12-11T13:51:31.696Z,0.60
2022-12-11T13:54:23.485Z,0.70
2022-12-11T13:57:04.730Z,0.70
2022-12-11T13:59:35.061Z,0.70
2022-12-11T14:02:11.169Z,0.60
2022-12-11T14:04:39.237Z,0.60
2022-12-11T14:07:09.161Z,0.60
2022-12-11T14:09:41.448Z,0.60
2022-12-11T14:12:19.402Z,0.60
2022-12-11T14:14:51.663Z,0.60
2022-12-11T14:17:26.735Z,0.60
2022-12-11T14:19:57.053Z,0.50
2022-12-11T14:22:26.561Z,0.90
2022-12-11T14:24:56.273Z,0.50
2022-12-11T14:27:27.249Z,0.50
2022-12-11T14:29:55.498Z,2.70
2022-12-11T14:32:31.339Z,0.60
2022-12-11T14:35:00.128Z,0.50
2022-12-11T14:37:29.218Z,0.60
2022-12-11T14:40:00.850Z,0.50
2022-12-11T14:42:33.499Z,1.00
2022-12-11T14:45:07.369Z,0.60
2022-12-11T14:47:39.714Z,2.40
2022-12-11T14:50:12.873Z,0.60
2022-12-11T14:52:45.098Z,0.60
2022-12-11T14:55:18.710Z,0.50
2022-12-11T14:57:50.985Z,0.50
2022-12-11T15:00:24.571Z,0.50
2022-12-11T15:03:00.263Z,0.40
2022-12-11T15:05:28.481Z,0.40
2022-12-11T15:07:59.111Z,1.90
2022-12-11T15:10:37.163Z,0.40
2022-12-11T15:13:08.002Z,0.40
2022-12-11T15:15:46.001Z,0.40
2022-12-11T15:18:21.585Z,0.40
2022-12-11T15:20:53.232Z,0.40
2022-12-11T15:23:21.519Z,0.40
2022-12-11T15:25:52.446Z,0.30
2022-12-11T15:28:31.579Z,0.30
2022-12-11T15:31:01.256Z,0.30
2022-12-11T15:33:34.046Z,0.20
2022-12-11T15:36:04.322Z,0.20
2022-12-11T15:38:35.587Z,0.20
2022-12-11T15:41:04.205Z,1.40
2022-12-11T15:43:38.285Z,0.30
2022-12-11T15:46:07.162Z,0.30
2022-12-11T15:48:35.169Z,0.20
2022-12-11T15:51:03.667Z,0.20
2022-12-11T15:53:31.660Z,0.20
2022-12-11T15:56:00.153Z,0.20
2022-12-11T15:58:28.385Z,0.20
2022-12-11T16:00:58.434Z,0.90
2022-12-11T16:03:26.814Z,0.10
2022-12-11T16:05:54.851Z,0.10
2022-12-11T16:08:24.483Z,0.10
2022-12-11T16:10:54.016Z,0.10
2022-12-11T16:13:22.500Z,0.10
2022-12-11T16:15:51.903Z,-0.10
2022-12-11T16:18:22.980Z,0.10
2022-12-11T16:20:51.711Z,0.10
2022-12-11T16:23:20.160Z,0.20
2022-12-11T16:25:48.641Z,0.20
2022-12-11T16:28:20.649Z,0.20
2022-12-11T16:30:48.706Z,0.20
2022-12-11T16:33:17.340Z,1.00
2022-12-11T16:35:47.354Z,0.20
2022-12-11T16:38:15.378Z,0.20
2022-12-11T16:40:43.328Z,0.30
2022-12-11T16:43:11.322Z,0.10
2022-12-11T16:45:39.223Z,2.40
2022-12-11T16:48:07.435Z,0.30
2022-12-11T17:04:04.612Z,0.10
2022-12-11T17:06:33.047Z,0.10
2022-12-11T17:09:01.094Z,0.10
2022-12-11T17:11:29.081Z,1.30
2022-12-11T17:13:58.924Z,0.00
2022-12-11T17:16:30.318Z,1.10
2022-12-11T17:19:15.879Z,2.00
2022-12-11T17:21:49.893Z,0.20
2022-12-11T17:24:19.662Z,0.00
2022-12-11T17:26:50.362Z,-0.10
2022-12-11T17:29:19.967Z,0.10
2022-12-11T17:31:48.622Z,1.30
2022-12-11T17:34:19.642Z,0.00
2022-12-11T17:36:47.768Z,-0.10
2022-12-11T17:39:15.743Z,1.20
2022-12-11T17:41:50.434Z,-0.30
2022-12-11T17:44:18.548Z,-0.10
2022-12-11T17:46:46.834Z,1.00
2022-12-11T17:49:39.475Z,0.10
2022-12-11T17:52:08.257Z,-0.20
2022-12-11T17:54:36.433Z,-0.20
2022-12-11T17:57:04.521Z,-0.30
2022-12-11T17:59:32.575Z,1.40
2022-12-11T18:02:00.841Z,1.60
2022-12-11T18:04:28.967Z,1.90
2022-12-11T18:06:58.385Z,1.20
2022-12-11T18:09:26.448Z,-0.50
2022-12-11T18:11:55.770Z,1.90
2022-12-11T18:14:23.781Z,-0.40
2022-12-11T18:16:52.816Z,0.40
2022-12-11T18:19:22.698Z,0.10
2022-12-11T18:21:51.204Z,1.20
2022-12-11T18:24:21.093Z,-0.50
2022-12-11T18:26:49.524Z,1.30
2022-12-11T18:29:17.514Z,1.30
2022-12-11T18:31:45.606Z,-0.60
2022-12-11T18:34:13.625Z,1.00
2022-12-11T18:36:41.911Z,0.40
2022-12-11T18:39:10.298Z,0.90
2022-12-11T18:41:39.999Z,-0.40
2022-12-11T18:44:09.907Z,0.40
2022-12-11T18:46:56.821Z,0.50
2022-12-11T18:49:24.957Z,-0.80
2022-12-11T18:51:59.773Z,0.90
2022-12-11T18:54:27.740Z,0.90
2022-12-11T18:56:57.584Z,1.10
2022-12-11T18:59:25.531Z,-1.10
2022-12-11T19:01:53.640Z,-1.20
2022-12-11T19:04:21.726Z,-1.50
2022-12-11T19:06:49.684Z,-1.30
2022-12-11T19:09:17.709Z,-1.50
2022-12-11T19:11:45.723Z,-1.50
2022-12-11T19:14:15.493Z,-1.40
2022-12-11T19:16:45.346Z,-1.60
2022-12-11T19:19:16.719Z,-1.40
2022-12-11T19:21:45.287Z,-1.70
2022-12-11T19:24:16.084Z,-1.60
2022-12-11T19:26:44.348Z,-1.70
2022-12-11T19:29:20.639Z,-1.80
2022-12-11T19:31:48.956Z,-1.70
2022-12-11T19:34:17.326Z,-1.80
2022-12-11T19:36:45.551Z,-2.10
2022-12-11T19:39:14.872Z,-1.80
2022-12-11T19:41:43.347Z,-1.90
2022-12-11T19:44:11.474Z,0.10
2022-12-11T19:46:40.993Z,-1.90
2022-12-11T19:49:09.022Z,-2.10
2022-12-11T19:51:39.294Z,-2.10
2022-12-11T19:54:09.865Z,-2.30
2022-12-11T19:56:38.113Z,-2.10
2022-12-11T19:59:08.284Z,-2.30
2022-12-11T20:01:38.373Z,-2.40
2022-12-11T20:04:10.120Z,-1.00
2022-12-11T20:06:39.738Z,-2.60
2022-12-11T20:09:10.929Z,-0.40
2022-12-11T20:11:40.447Z,-0.10
2022-12-11T20:14:08.850Z,-2.50
2022-12-11T20:17:09.266Z,-2.50
2022-12-11T20:19:26.709Z,-0.50
2022-12-11T20:21:55.835Z,-2.50
2022-12-11T20:24:24.001Z,-2.60
2022-12-11T20:26:54.344Z,-2.60
2022-12-11T20:29:22.564Z,-2.60
2022-12-11T20:31:51.532Z,-0.70
2022-12-11T20:34:19.912Z,-2.80
2022-12-11T20:36:49.967Z,-2.60
2022-12-11T20:39:17.969Z,-2.90
2022-12-11T20:41:45.919Z,-1.10
2022-12-11T20:44:13.900Z,-2.80
2022-12-11T20:46:41.898Z,-3.00
2022-12-11T20:49:24.248Z,-3.00
2022-12-11T20:51:53.578Z,-3.00
2022-12-11T20:54:21.593Z,-2.90
2022-12-11T20:56:49.626Z,-3.20
2022-12-11T20:59:18.385Z,-3.20
2022-12-11T21:01:46.656Z,-3.00
2022-12-11T21:04:16.666Z,-3.00
2022-12-11T21:06:44.711Z,-0.80
2022-12-11T21:09:17.644Z,-3.00
2022-12-11T21:11:45.695Z,-3.00
2022-12-11T21:14:14.570Z,-3.10
2022-12-11T21:16:43.192Z,-3.20
2022-12-11T21:19:16.721Z,-3.10
2022-12-11T21:21:46.207Z,-3.00
2022-12-11T21:24:18.572Z,-3.20
2022-12-11T21:26:47.146Z,-2.90
2022-12-11T21:29:15.468Z,-3.00
2022-12-11T21:31:43.904Z,-2.80
2022-12-11T21:34:12.264Z,-2.80
2022-12-11T21:36:40.204Z,-2.80
2022-12-11T21:39:08.456Z,-2.80
2022-12-11T21:41:37.889Z,-2.70
2022-12-11T21:46:55.019Z,-2.90
2022-12-11T21:49:22.994Z,-2.80
2022-12-11T21:51:51.057Z,-2.80
2022-12-11T21:54:20.638Z,-1.00
2022-12-11T21:56:49.947Z,-2.80
2022-12-11T21:59:18.803Z,-2.80
2022-12-11T22:01:47.011Z,-2.80
2022-12-11T22:04:16.236Z,-1.20
2022-12-11T22:06:46.758Z,-2.80
2022-12-11T22:09:15.169Z,-2.90
2022-12-11T22:11:45.202Z,-2.90
2022-12-11T22:14:15.282Z,-2.90
2022-12-11T22:16:43.688Z,-3.20
2022-12-11T22:19:11.942Z,-2.80
2022-12-11T22:21:39.966Z,-0.80
2022-12-11T22:24:08.196Z,-3.00
2022-12-11T22:26:36.172Z,-2.80
2022-12-11T22:29:04.515Z,-2.90
2022-12-11T22:31:33.922Z,-2.90
2022-12-11T22:34:01.995Z,-2.70
2022-12-11T22:36:29.976Z,-3.30
2022-12-11T22:38:57.910Z,-3.10
2022-12-11T22:41:28.255Z,-3.20
2022-12-11T22:43:56.872Z,-3.10
2022-12-11T22:46:26.964Z,-3.40
2022-12-11T22:48:56.440Z,-3.30
2022-12-11T22:51:24.489Z,-3.60
2022-12-11T22:53:52.459Z,-3.50
2022-12-11T22:56:20.405Z,-3.50
2022-12-11T22:58:48.575Z,-3.50
2022-12-11T23:01:19.952Z,-3.70
2022-12-11T23:03:48.001Z,-3.50
2022-12-11T23:06:20.235Z,-3.80
2022-12-11T23:08:48.648Z,-2.40
2022-12-11T23:11:18.602Z,-3.80
2022-12-11T23:13:46.563Z,-3.80
2022-12-11T23:16:15.980Z,-3.90
2022-12-11T23:18:44.167Z,-3.90
2022-12-11T23:21:13.071Z,-3.90
2022-12-11T23:23:42.826Z,-2.60
2022-12-11T23:26:13.671Z,-4.50
2022-12-11T23:28:42.515Z,-4.30
2022-12-11T23:31:10.734Z,-4.20
2022-12-11T23:33:39.146Z,-4.10
2022-12-11T23:36:07.926Z,-4.20
2022-12-11T23:38:36.032Z,-4.20
2022-12-11T23:41:06.605Z,-3.70
2022-12-11T23:43:35.887Z,-4.50
2022-12-11T23:46:04.563Z,-4.60
2022-12-11T23:51:51.643Z,-1.80
2022-12-11T23:54:26.360Z,-3.40
2022-12-11T23:57:14.612Z,-2.20
2022-12-11T23:59:52.807Z,-1.90
